Big Bear Station Historical Data
Daily Summary for January 29, 2019 Units:  English    Metric   Both
Next Day »
Daily Weekly Monthly Yearly Custom
  High: Low: Average:
Temperature: 53.1 °F 34.2 °F 41 °F
Dew Point: 39.4 °F 23.8 °F 30.4 °F
Humidity: 90% 42% 67%
Wind Speed: 4.2mph 0.0mph 0.5mph
Wind Gust: -999.0mph - -
Wind- - WNW
Pressure: 23.52 in 23.39 in -
Precipitation: 0.01 in    
Historical Graphs
 
 
Tabular Data for January 29, 2019
Time Temperature Dew Point Pressure Wind Wind Speed Wind Gust Humidity Rainfall Rate (Hourly)
00:06 34.7 °F 23.8 °F 23.52 in Calm   -999.0 mph 64% 0.00 in
00:21 34.5 °F 23.9 °F 23.52 in Calm   -999.0 mph 65% 0.00 in
00:36 34.5 °F 24.7 °F 23.52 in Calm   -999.0 mph 67% 0.00 in
00:51 34.7 °F 25.6 °F 23.51 in Calm   -999.0 mph 69% 0.00 in
01:07 34.3 °F 25.5 °F 23.51 in Calm   -999.0 mph 70% 0.00 in
01:22 34.3 °F 26.2 °F 23.50 in Calm   -999.0 mph 72% 0.00 in
01:37 34.2 °F 25.1 °F 23.50 in Calm   -999.0 mph 69% 0.00 in
01:52 34.3 °F 25.9 °F 23.49 in Calm   -999.0 mph 71% 0.00 in
02:07 34.3 °F 25.2 °F 23.49 in Calm   -999.0 mph 69% 0.00 in
02:23 34.3 °F 25.2 °F 23.49 in Calm   -999.0 mph 69% 0.00 in
02:38 34.3 °F 25.5 °F 23.49 in Calm   -999.0 mph 70% 0.00 in
02:53 34.3 °F 25.9 °F 23.49 in Calm   -999.0 mph 71% 0.00 in
03:08 34.3 °F 26.5 °F 23.48 in Calm   -999.0 mph 73% 0.00 in
03:23 34.7 °F 27.3 °F 23.48 in South 2.7 mph -999.0 mph 74% 0.00 in
03:39 34.5 °F 28.0 °F 23.48 in Calm   -999.0 mph 77% 0.00 in
03:54 34.3 °F 27.8 °F 23.48 in Calm   -999.0 mph 77% 0.00 in
04:09 34.5 °F 28.3 °F 23.47 in Calm   -999.0 mph 78% 0.00 in
04:24 34.7 °F 27.3 °F 23.47 in Calm   -999.0 mph 74% 0.00 in
04:39 34.3 °F 28.5 °F 23.47 in Calm   -999.0 mph 79% 0.00 in
04:55 34.5 °F 27.7 °F 23.47 in Calm   -999.0 mph 76% 0.00 in
05:10 34.5 °F 27.7 °F 23.47 in Calm   -999.0 mph 76% 0.00 in
05:25 34.5 °F 28.0 °F 23.47 in Calm   -999.0 mph 77% 0.00 in
05:40 34.9 °F 27.8 °F 23.47 in Calm   -999.0 mph 75% 0.00 in
05:56 34.7 °F 27.3 °F 23.47 in Calm   -999.0 mph 74% 0.00 in
06:11 34.9 °F 27.8 °F 23.47 in Calm   -999.0 mph 75% 0.00 in
06:26 35.6 °F 27.5 °F 23.47 in Calm   -999.0 mph 72% 0.00 in
06:41 35.4 °F 28.6 °F 23.47 in Calm   -999.0 mph 76% 0.00 in
06:57 37.8 °F 33.4 °F 23.48 in Calm   -999.0 mph 84% 0.00 in
07:12 37.6 °F 34.7 °F 23.47 in SSE 2.7 mph -999.0 mph 89% 0.00 in
07:27 37.8 °F 34.9 °F 23.49 in Calm   -999.0 mph 89% 0.00 in
07:42 37.9 °F 35.2 °F 23.49 in Calm   -999.0 mph 90% 0.00 in
07:58 39.6 °F 36.3 °F 23.49 in Calm   -999.0 mph 88% 0.00 in
08:13 39.2 °F 36.5 °F 23.49 in Calm   -999.0 mph 90% 0.00 in
08:28 39.4 °F 36.4 °F 23.48 in Calm   -999.0 mph 89% 0.00 in
08:43 39.7 °F 36.7 °F 23.48 in Calm   -999.0 mph 89% 0.00 in
08:58 40.1 °F 36.8 °F 23.48 in Calm   -999.0 mph 88% 0.00 in
09:14 40.8 °F 37.5 °F 23.48 in Calm   -999.0 mph 88% 0.00 in
09:29 42.1 °F 38.5 °F 23.48 in Calm   -999.0 mph 87% 0.00 in
09:44 43.9 °F 39.4 °F 23.48 in Calm   -999.0 mph 84% 0.00 in
09:59 45.1 °F 39.3 °F 23.48 in Calm   -999.0 mph 80% 0.00 in
10:14 44.8 °F 38.7 °F 23.48 in Calm   -999.0 mph 79% 0.00 in
10:30 47.3 °F 36.9 °F 23.47 in Calm   -999.0 mph 67% 0.00 in
10:45 48.6 °F 36.6 °F 23.47 in Calm   -999.0 mph 63% 0.00 in
11:00 50.0 °F 34.5 °F 23.46 in Calm   -999.0 mph 55% 0.00 in
11:15 49.6 °F 33.6 °F 23.46 in NW 3.2 mph -999.0 mph 54% 0.00 in
11:30 49.6 °F 34.1 °F 23.45 in WNW 1.7 mph -999.0 mph 55% 0.00 in
11:46 50.2 °F 35.1 °F 23.45 in West 2.2 mph -999.0 mph 56% 0.00 in
12:01 51.1 °F 35.0 °F 23.45 in Calm   -999.0 mph 54% 0.00 in
12:16 50.2 °F 34.2 °F 23.44 in WNW 2.7 mph -999.0 mph 54% 0.00 in
12:32 51.4 °F 36.7 °F 23.43 in NNW 2.7 mph -999.0 mph 57% 0.00 in
12:47 52.2 °F 34.1 °F 23.43 in North 4.2 mph -999.0 mph 50% 0.00 in
13:02 51.8 °F 34.2 °F 23.42 in NNW 3.7 mph -999.0 mph 51% 0.00 in
13:17 53.1 °F 33.4 °F 23.42 in Calm   -999.0 mph 47% 0.00 in
13:33 51.4 °F 32.9 °F 23.42 in North 2.7 mph -999.0 mph 49% 0.00 in
13:48 50.4 °F 32.0 °F 23.42 in Calm   -999.0 mph 49% 0.00 in
14:03 49.5 °F 31.1 °F 23.41 in NNW 2.2 mph -999.0 mph 49% 0.00 in
14:19 50.2 °F 31.3 °F 23.41 in Calm   -999.0 mph 48% 0.00 in
14:34 50.0 °F 29.5 °F 23.41 in NW 2.2 mph -999.0 mph 45% 0.00 in
14:49 49.6 °F 29.1 °F 23.41 in North 3.2 mph -999.0 mph 45% 0.00 in
15:04 49.5 °F 29.0 °F 23.41 in NNW 2.2 mph -999.0 mph 45% 0.00 in
15:19 49.5 °F 27.3 °F 23.41 in NW 2.7 mph -999.0 mph 42% 0.00 in
15:35 48.6 °F 28.2 °F 23.41 in NW 1.1 mph -999.0 mph 45% 0.00 in
15:50 47.5 °F 28.8 °F 23.42 in Calm   -999.0 mph 48% 0.00 in
16:05 46.8 °F 29.1 °F 23.39 in South 2.7 mph -999.0 mph 50% 0.00 in
16:20 45.9 °F 31.1 °F 23.39 in Calm   -999.0 mph 56% 0.00 in
16:35 45.5 °F 30.3 °F 23.39 in Calm   -999.0 mph 55% 0.00 in
16:51 45.1 °F 29.9 °F 23.39 in Calm   -999.0 mph 55% 0.00 in
17:06 45.0 °F 28.9 °F 23.39 in Calm   -999.0 mph 53% 0.00 in
17:21 44.6 °F 29.0 °F 23.40 in Calm   -999.0 mph 54% 0.00 in
17:37 43.7 °F 29.0 °F 23.40 in Calm   -999.0 mph 56% 0.00 in
17:52 43.2 °F 28.1 °F 23.40 in Calm   -999.0 mph 55% 0.00 in
18:07 42.6 °F 28.4 °F 23.40 in Calm   -999.0 mph 57% 0.00 in
18:23 42.3 °F 27.3 °F 23.40 in Calm   -999.0 mph 55% 0.00 in
18:38 42.3 °F 27.3 °F 23.41 in Calm   -999.0 mph 55% 0.00 in
18:53 42.1 °F 28.4 °F 23.41 in Calm   -999.0 mph 58% 0.00 in
19:08 41.7 °F 28.8 °F 23.41 in Calm   -999.0 mph 60% 0.00 in
19:23 41.4 °F 30.1 °F 23.41 in Calm   -999.0 mph 64% 0.00 in
19:39 41.2 °F 28.8 °F 23.41 in Calm   -999.0 mph 61% 0.00 in
19:54 41.2 °F 27.5 °F 23.41 in Calm   -999.0 mph 58% 0.00 in
20:09 40.3 °F 28.3 °F 23.41 in Calm   -999.0 mph 62% 0.00 in
20:24 39.6 °F 28.0 °F 23.41 in Calm   -999.0 mph 63% 0.00 in
20:39 39.2 °F 29.2 °F 23.41 in Calm   -999.0 mph 67% 0.00 in
20:55 39.0 °F 29.7 °F 23.41 in Calm   -999.0 mph 69% 0.00 in
21:10 38.7 °F 30.1 °F 23.41 in Calm   -999.0 mph 71% 0.00 in
21:25 37.9 °F 29.7 °F 23.41 in Calm   -999.0 mph 72% 0.00 in
21:40 37.9 °F 29.3 °F 23.41 in Calm   -999.0 mph 71% 0.00 in
21:56 37.4 °F 28.9 °F 23.41 in Calm   -999.0 mph 71% 0.00 in
22:11 37.2 °F 29.3 °F 23.41 in Calm   -999.0 mph 73% 0.00 in
22:26 37.4 °F 29.5 °F 23.40 in Calm   -999.0 mph 73% 0.00 in
22:41 37.0 °F 30.1 °F 23.40 in Calm   -999.0 mph 76% 0.00 in
22:56 36.5 °F 30.3 °F 23.40 in Calm   -999.0 mph 78% 0.00 in
23:12 36.3 °F 30.1 °F 23.41 in Calm   -999.0 mph 78% 0.00 in
23:27 36.9 °F 30.0 °F 23.41 in Calm   -999.0 mph 76% 0.00 in
23:42 36.3 °F 30.1 °F 23.40 in Calm   -999.0 mph 78% 0.00 in
23:57 36.3 °F 30.1 °F 23.40 in Calm   -999.0 mph 78% 0.00 in
Big Bear CA Weather